sensor_id;sensor_type;location;lat;lon;timestamp;P1;durP1;ratioP1;P2;durP2;ratioP2
505;SDS011;551;48.524;9.056;2022-12-18T00:02:11;43.37;;;19.80;;
505;SDS011;551;48.524;9.056;2022-12-18T00:04:36;43.53;;;15.63;;
505;SDS011;551;48.524;9.056;2022-12-18T00:07:02;57.03;;;18.50;;
505;SDS011;551;48.524;9.056;2022-12-18T00:09:27;45.97;;;19.17;;
505;SDS011;551;48.524;9.056;2022-12-18T00:11:53;42.13;;;17.63;;
505;SDS011;551;48.524;9.056;2022-12-18T00:14:19;64.37;;;20.00;;
505;SDS011;551;48.524;9.056;2022-12-18T00:16:45;47.60;;;16.90;;
505;SDS011;551;48.524;9.056;2022-12-18T00:19:11;42.80;;;16.73;;
505;SDS011;551;48.524;9.056;2022-12-18T00:21:38;34.70;;;17.33;;
505;SDS011;551;48.524;9.056;2022-12-18T00:24:03;89.73;;;20.93;;
505;SDS011;551;48.524;9.056;2022-12-18T00:26:30;38.40;;;18.93;;
505;SDS011;551;48.524;9.056;2022-12-18T00:29:00;66.10;;;21.92;;
505;SDS011;551;48.524;9.056;2022-12-18T00:31:31;42.10;;;17.55;;
505;SDS011;551;48.524;9.056;2022-12-18T00:33:57;46.15;;;17.27;;
505;SDS011;551;48.524;9.056;2022-12-18T00:36:23;41.53;;;18.43;;
505;SDS011;551;48.524;9.056;2022-12-18T00:38:54;41.10;;;18.20;;
505;SDS011;551;48.524;9.056;2022-12-18T00:41:21;36.35;;;17.75;;
505;SDS011;551;48.524;9.056;2022-12-18T00:44:07;54.55;;;21.85;;
505;SDS011;551;48.524;9.056;2022-12-18T00:46:34;55.88;;;19.10;;
505;SDS011;551;48.524;9.056;2022-12-18T00:49:00;58.17;;;20.83;;
505;SDS011;551;48.524;9.056;2022-12-18T00:51:26;41.47;;;17.48;;
505;SDS011;551;48.524;9.056;2022-12-18T00:53:52;50.27;;;20.70;;
505;SDS011;551;48.524;9.056;2022-12-18T00:56:17;38.13;;;18.13;;
505;SDS011;551;48.524;9.056;2022-12-18T00:58:46;48.17;;;20.45;;
505;SDS011;551;48.524;9.056;2022-12-18T01:01:11;46.73;;;18.77;;
505;SDS011;551;48.524;9.056;2022-12-18T01:03:37;49.40;;;21.17;;
505;SDS011;551;48.524;9.056;2022-12-18T01:06:09;50.13;;;18.33;;
505;SDS011;551;48.524;9.056;2022-12-18T01:08:36;43.83;;;18.38;;
505;SDS011;551;48.524;9.056;2022-12-18T01:11:13;46.60;;;19.38;;
505;SDS011;551;48.524;9.056;2022-12-18T01:13:40;50.80;;;18.45;;
505;SDS011;551;48.524;9.056;2022-12-18T01:16:07;38.38;;;18.13;;
505;SDS011;551;48.524;9.056;2022-12-18T01:18:33;39.72;;;19.38;;
505;SDS011;551;48.524;9.056;2022-12-18T01:20:59;47.80;;;18.80;;
505;SDS011;551;48.524;9.056;2022-12-18T01:23:25;48.63;;;17.87;;
505;SDS011;551;48.524;9.056;2022-12-18T01:25:50;46.37;;;19.50;;
505;SDS011;551;48.524;9.056;2022-12-18T01:28:16;38.57;;;21.30;;
505;SDS011;551;48.524;9.056;2022-12-18T01:30:41;38.90;;;19.70;;
505;SDS011;551;48.524;9.056;2022-12-18T01:33:07;34.67;;;16.37;;
505;SDS011;551;48.524;9.056;2022-12-18T01:35:32;38.73;;;17.80;;
505;SDS011;551;48.524;9.056;2022-12-18T01:37:58;45.97;;;20.20;;
505;SDS011;551;48.524;9.056;2022-12-18T01:40:23;42.40;;;18.03;;
505;SDS011;551;48.524;9.056;2022-12-18T01:42:50;51.10;;;18.83;;
505;SDS011;551;48.524;9.056;2022-12-18T01:47:52;42.80;;;20.52;;
505;SDS011;551;48.524;9.056;2022-12-18T01:50:21;38.28;;;17.17;;
505;SDS011;551;48.524;9.056;2022-12-18T01:55:32;36.40;;;16.55;;
505;SDS011;551;48.524;9.056;2022-12-18T01:58:03;47.05;;;19.30;;
505;SDS011;551;48.524;9.056;2022-12-18T02:00:29;40.63;;;18.95;;
505;SDS011;551;48.524;9.056;2022-12-18T02:02:55;42.27;;;18.50;;
505;SDS011;551;48.524;9.056;2022-12-18T02:05:24;45.37;;;19.50;;
505;SDS011;551;48.524;9.056;2022-12-18T02:10:33;47.13;;;18.48;;
505;SDS011;551;48.524;9.056;2022-12-18T02:13:12;46.97;;;17.55;;
505;SDS011;551;48.524;9.056;2022-12-18T02:16:10;40.25;;;18.05;;
505;SDS011;551;48.524;9.056;2022-12-18T02:18:47;41.65;;;18.20;;
505;SDS011;551;48.524;9.056;2022-12-18T02:24:17;56.20;;;21.00;;
505;SDS011;551;48.524;9.056;2022-12-18T02:27:06;48.53;;;19.15;;
505;SDS011;551;48.524;9.056;2022-12-18T02:32:03;45.70;;;18.55;;
505;SDS011;551;48.524;9.056;2022-12-18T02:34:34;51.22;;;17.02;;
505;SDS011;551;48.524;9.056;2022-12-18T02:37:03;51.30;;;18.80;;
505;SDS011;551;48.524;9.056;2022-12-18T02:39:33;44.95;;;18.92;;
505;SDS011;551;48.524;9.056;2022-12-18T02:42:02;54.20;;;22.15;;
505;SDS011;551;48.524;9.056;2022-12-18T02:44:32;45.83;;;19.42;;
505;SDS011;551;48.524;9.056;2022-12-18T02:47:11;41.70;;;17.20;;
505;SDS011;551;48.524;9.056;2022-12-18T02:49:51;35.35;;;16.77;;
505;SDS011;551;48.524;9.056;2022-12-18T02:52:35;62.92;;;21.52;;
505;SDS011;551;48.524;9.056;2022-12-18T02:55:23;42.72;;;17.05;;
505;SDS011;551;48.524;9.056;2022-12-18T03:01:19;47.00;;;17.60;;
505;SDS011;551;48.524;9.056;2022-12-18T03:03:57;42.17;;;19.40;;
505;SDS011;551;48.524;9.056;2022-12-18T03:06:28;58.17;;;21.30;;
505;SDS011;551;48.524;9.056;2022-12-18T03:08:59;43.35;;;17.30;;
505;SDS011;551;48.524;9.056;2022-12-18T03:11:29;56.45;;;19.15;;
505;SDS011;551;48.524;9.056;2022-12-18T03:14:16;52.72;;;20.27;;
505;SDS011;551;48.524;9.056;2022-12-18T03:16:44;52.00;;;18.73;;
505;SDS011;551;48.524;9.056;2022-12-18T03:19:15;40.22;;;17.67;;
505;SDS011;551;48.524;9.056;2022-12-18T03:21:46;54.90;;;20.55;;
505;SDS011;551;48.524;9.056;2022-12-18T03:24:16;43.85;;;18.92;;
505;SDS011;551;48.524;9.056;2022-12-18T03:26:44;35.75;;;17.27;;
505;SDS011;551;48.524;9.056;2022-12-18T03:29:18;52.20;;;21.08;;
505;SDS011;551;48.524;9.056;2022-12-18T03:31:49;48.30;;;19.45;;
505;SDS011;551;48.524;9.056;2022-12-18T03:34:21;45.08;;;18.08;;
505;SDS011;551;48.524;9.056;2022-12-18T03:36:49;52.22;;;20.88;;
505;SDS011;551;48.524;9.056;2022-12-18T03:39:14;52.27;;;20.60;;
505;SDS011;551;48.524;9.056;2022-12-18T03:41:44;52.97;;;22.23;;
505;SDS011;551;48.524;9.056;2022-12-18T03:44:26;46.58;;;19.23;;
505;SDS011;551;48.524;9.056;2022-12-18T03:54:51;50.75;;;20.77;;
505;SDS011;551;48.524;9.056;2022-12-18T03:57:20;52.17;;;19.38;;
505;SDS011;551;48.524;9.056;2022-12-18T03:59:50;57.58;;;20.45;;
505;SDS011;551;48.524;9.056;2022-12-18T04:02:21;57.75;;;22.48;;
505;SDS011;551;48.524;9.056;2022-12-18T04:04:48;61.85;;;22.27;;
505;SDS011;551;48.524;9.056;2022-12-18T04:07:18;55.55;;;23.23;;
505;SDS011;551;48.524;9.056;2022-12-18T04:09:45;70.43;;;22.63;;
505;SDS011;551;48.524;9.056;2022-12-18T04:12:14;68.65;;;24.40;;
505;SDS011;551;48.524;9.056;2022-12-18T04:14:39;70.63;;;26.00;;
505;SDS011;551;48.524;9.056;2022-12-18T04:17:05;70.07;;;23.60;;
505;SDS011;551;48.524;9.056;2022-12-18T04:19:30;54.93;;;21.00;;
505;SDS011;551;48.524;9.056;2022-12-18T04:21:56;64.83;;;22.60;;
505;SDS011;551;48.524;9.056;2022-12-18T04:24:21;46.60;;;20.20;;
505;SDS011;551;48.524;9.056;2022-12-18T04:26:47;65.77;;;19.20;;
505;SDS011;551;48.524;9.056;2022-12-18T04:29:12;55.90;;;20.50;;
505;SDS011;551;48.524;9.056;2022-12-18T04:31:38;46.57;;;19.60;;
505;SDS011;551;48.524;9.056;2022-12-18T04:34:04;73.30;;;21.47;;
505;SDS011;551;48.524;9.056;2022-12-18T04:36:29;58.83;;;21.30;;
505;SDS011;551;48.524;9.056;2022-12-18T04:38:55;51.33;;;20.73;;
505;SDS011;551;48.524;9.056;2022-12-18T04:41:20;68.20;;;22.27;;
505;SDS011;551;48.524;9.056;2022-12-18T04:43:46;55.30;;;20.07;;
505;SDS011;551;48.524;9.056;2022-12-18T04:46:12;58.57;;;20.37;;
505;SDS011;551;48.524;9.056;2022-12-18T04:48:37;73.00;;;24.73;;
505;SDS011;551;48.524;9.056;2022-12-18T04:51:04;59.17;;;22.57;;
505;SDS011;551;48.524;9.056;2022-12-18T04:53:30;60.90;;;20.60;;
505;SDS011;551;48.524;9.056;2022-12-18T04:56:29;59.03;;;20.20;;
505;SDS011;551;48.524;9.056;2022-12-18T04:58:48;59.17;;;22.55;;
505;SDS011;551;48.524;9.056;2022-12-18T05:01:14;41.20;;;17.00;;
505;SDS011;551;48.524;9.056;2022-12-18T05:03:41;53.13;;;21.63;;
505;SDS011;551;48.524;9.056;2022-12-18T05:06:07;77.13;;;23.80;;
505;SDS011;551;48.524;9.056;2022-12-18T05:08:33;53.10;;;20.77;;
505;SDS011;551;48.524;9.056;2022-12-18T05:11:00;46.77;;;18.33;;
505;SDS011;551;48.524;9.056;2022-12-18T05:13:27;56.05;;;21.77;;
505;SDS011;551;48.524;9.056;2022-12-18T05:15:53;67.22;;;20.73;;
505;SDS011;551;48.524;9.056;2022-12-18T05:18:19;60.58;;;22.05;;
505;SDS011;551;48.524;9.056;2022-12-18T05:20:45;66.90;;;24.47;;
505;SDS011;551;48.524;9.056;2022-12-18T05:23:10;55.23;;;20.97;;
505;SDS011;551;48.524;9.056;2022-12-18T05:25:36;49.10;;;17.90;;
505;SDS011;551;48.524;9.056;2022-12-18T05:28:01;56.50;;;20.23;;
505;SDS011;551;48.524;9.056;2022-12-18T05:30:27;61.20;;;21.17;;
505;SDS011;551;48.524;9.056;2022-12-18T05:32:53;50.70;;;20.60;;
505;SDS011;551;48.524;9.056;2022-12-18T05:35:19;59.90;;;22.17;;
505;SDS011;551;48.524;9.056;2022-12-18T05:37:44;52.00;;;20.43;;
505;SDS011;551;48.524;9.056;2022-12-18T05:40:12;51.00;;;22.43;;
505;SDS011;551;48.524;9.056;2022-12-18T05:42:38;65.20;;;24.05;;
505;SDS011;551;48.524;9.056;2022-12-18T05:45:04;53.67;;;20.27;;
505;SDS011;551;48.524;9.056;2022-12-18T05:47:30;70.13;;;23.38;;
505;SDS011;551;48.524;9.056;2022-12-18T05:49:55;55.53;;;23.87;;
505;SDS011;551;48.524;9.056;2022-12-18T05:52:21;63.57;;;22.63;;
505;SDS011;551;48.524;9.056;2022-12-18T05:54:46;65.63;;;23.77;;
505;SDS011;551;48.524;9.056;2022-12-18T05:57:12;68.90;;;21.43;;
505;SDS011;551;48.524;9.056;2022-12-18T05:59:38;53.87;;;21.87;;
505;SDS011;551;48.524;9.056;2022-12-18T06:02:03;67.57;;;19.47;;
505;SDS011;551;48.524;9.056;2022-12-18T06:04:29;54.90;;;20.13;;
505;SDS011;551;48.524;9.056;2022-12-18T06:06:54;47.50;;;19.10;;
505;SDS011;551;48.524;9.056;2022-12-18T06:09:20;53.27;;;19.63;;
505;SDS011;551;48.524;9.056;2022-12-18T06:11:45;39.90;;;19.17;;
505;SDS011;551;48.524;9.056;2022-12-18T06:14:11;47.90;;;18.90;;
505;SDS011;551;48.524;9.056;2022-12-18T06:16:36;60.77;;;23.23;;
505;SDS011;551;48.524;9.056;2022-12-18T06:19:03;55.50;;;19.87;;
505;SDS011;551;48.524;9.056;2022-12-18T06:21:29;47.53;;;18.73;;
505;SDS011;551;48.524;9.056;2022-12-18T06:23:56;53.45;;;18.67;;
505;SDS011;551;48.524;9.056;2022-12-18T06:26:21;54.73;;;22.37;;
505;SDS011;551;48.524;9.056;2022-12-18T06:28:47;61.43;;;18.93;;
505;SDS011;551;48.524;9.056;2022-12-18T06:31:13;60.83;;;21.20;;
505;SDS011;551;48.524;9.056;2022-12-18T06:33:39;55.83;;;20.90;;
505;SDS011;551;48.524;9.056;2022-12-18T06:36:07;46.65;;;20.70;;
505;SDS011;551;48.524;9.056;2022-12-18T06:38:35;49.70;;;20.33;;
505;SDS011;551;48.524;9.056;2022-12-18T06:41:19;50.65;;;20.23;;
505;SDS011;551;48.524;9.056;2022-12-18T06:43:45;47.40;;;18.00;;
505;SDS011;551;48.524;9.056;2022-12-18T06:46:11;55.17;;;22.13;;
505;SDS011;551;48.524;9.056;2022-12-18T06:48:37;52.10;;;20.20;;
505;SDS011;551;48.524;9.056;2022-12-18T06:51:03;51.00;;;18.93;;
505;SDS011;551;48.524;9.056;2022-12-18T06:53:29;65.50;;;23.50;;
505;SDS011;551;48.524;9.056;2022-12-18T06:56:02;51.78;;;19.30;;
505;SDS011;551;48.524;9.056;2022-12-18T06:58:32;46.78;;;15.80;;
505;SDS011;551;48.524;9.056;2022-12-18T07:01:01;39.27;;;17.40;;
505;SDS011;551;48.524;9.056;2022-12-18T07:03:27;60.20;;;20.55;;
505;SDS011;551;48.524;9.056;2022-12-18T07:05:53;50.23;;;15.20;;
505;SDS011;551;48.524;9.056;2022-12-18T07:08:18;42.93;;;16.50;;
505;SDS011;551;48.524;9.056;2022-12-18T07:10:44;59.63;;;21.87;;
505;SDS011;551;48.524;9.056;2022-12-18T07:13:10;55.30;;;18.60;;
505;SDS011;551;48.524;9.056;2022-12-18T07:15:35;52.70;;;17.83;;
505;SDS011;551;48.524;9.056;2022-12-18T07:18:01;58.23;;;18.87;;
505;SDS011;551;48.524;9.056;2022-12-18T07:20:26;30.60;;;13.40;;
505;SDS011;551;48.524;9.056;2022-12-18T07:22:52;47.90;;;19.70;;
505;SDS011;551;48.524;9.056;2022-12-18T07:25:17;58.83;;;20.50;;
505;SDS011;551;48.524;9.056;2022-12-18T07:27:43;71.53;;;20.93;;
505;SDS011;551;48.524;9.056;2022-12-18T07:30:09;51.20;;;19.17;;
505;SDS011;551;48.524;9.056;2022-12-18T07:32:35;47.38;;;16.00;;
505;SDS011;551;48.524;9.056;2022-12-18T07:35:00;54.80;;;17.87;;
505;SDS011;551;48.524;9.056;2022-12-18T07:37:26;58.37;;;19.47;;
505;SDS011;551;48.524;9.056;2022-12-18T07:39:51;59.17;;;19.13;;
505;SDS011;551;48.524;9.056;2022-12-18T07:42:17;40.77;;;16.80;;
505;SDS011;551;48.524;9.056;2022-12-18T07:44:58;44.83;;;17.00;;
505;SDS011;551;48.524;9.056;2022-12-18T07:47:24;40.22;;;18.27;;
505;SDS011;551;48.524;9.056;2022-12-18T07:49:50;54.50;;;17.53;;
505;SDS011;551;48.524;9.056;2022-12-18T07:52:15;51.70;;;20.63;;
505;SDS011;551;48.524;9.056;2022-12-18T07:54:41;47.13;;;19.07;;
505;SDS011;551;48.524;9.056;2022-12-18T07:57:07;64.50;;;21.97;;
505;SDS011;551;48.524;9.056;2022-12-18T07:59:32;40.03;;;17.90;;
505;SDS011;551;48.524;9.056;2022-12-18T08:01:58;46.50;;;18.97;;
505;SDS011;551;48.524;9.056;2022-12-18T08:04:24;56.07;;;19.37;;
505;SDS011;551;48.524;9.056;2022-12-18T08:06:49;56.78;;;19.67;;
505;SDS011;551;48.524;9.056;2022-12-18T08:09:15;49.23;;;20.00;;
505;SDS011;551;48.524;9.056;2022-12-18T08:11:41;39.53;;;18.57;;
505;SDS011;551;48.524;9.056;2022-12-18T08:14:06;49.77;;;16.87;;
505;SDS011;551;48.524;9.056;2022-12-18T08:16:32;44.47;;;16.67;;
505;SDS011;551;48.524;9.056;2022-12-18T08:18:57;43.50;;;16.40;;
505;SDS011;551;48.524;9.056;2022-12-18T08:21:24;52.93;;;18.97;;
505;SDS011;551;48.524;9.056;2022-12-18T08:23:52;48.20;;;19.20;;
505;SDS011;551;48.524;9.056;2022-12-18T08:26:19;45.40;;;16.60;;
505;SDS011;551;48.524;9.056;2022-12-18T08:28:45;42.45;;;18.08;;
505;SDS011;551;48.524;9.056;2022-12-18T08:31:11;39.07;;;16.10;;
505;SDS011;551;48.524;9.056;2022-12-18T08:33:37;34.90;;;18.17;;
505;SDS011;551;48.524;9.056;2022-12-18T08:36:04;37.60;;;16.80;;
505;SDS011;551;48.524;9.056;2022-12-18T08:38:31;48.13;;;18.08;;
505;SDS011;551;48.524;9.056;2022-12-18T08:41:00;57.95;;;17.50;;
505;SDS011;551;48.524;9.056;2022-12-18T08:43:27;39.75;;;17.00;;
505;SDS011;551;48.524;9.056;2022-12-18T08:46:11;39.97;;;18.58;;
505;SDS011;551;48.524;9.056;2022-12-18T08:48:37;41.17;;;18.15;;
505;SDS011;551;48.524;9.056;2022-12-18T08:51:03;46.40;;;20.20;;
505;SDS011;551;48.524;9.056;2022-12-18T08:53:29;42.77;;;18.77;;
505;SDS011;551;48.524;9.056;2022-12-18T08:55:55;44.63;;;20.43;;
505;SDS011;551;48.524;9.056;2022-12-18T08:58:21;48.38;;;20.90;;
505;SDS011;551;48.524;9.056;2022-12-18T09:00:47;43.77;;;18.80;;
505;SDS011;551;48.524;9.056;2022-12-18T09:03:17;40.63;;;17.87;;
505;SDS011;551;48.524;9.056;2022-12-18T09:05:45;37.50;;;16.80;;
505;SDS011;551;48.524;9.056;2022-12-18T09:08:11;42.53;;;19.57;;
505;SDS011;551;48.524;9.056;2022-12-18T09:10:44;39.50;;;19.90;;
505;SDS011;551;48.524;9.056;2022-12-18T09:13:11;46.03;;;20.27;;
505;SDS011;551;48.524;9.056;2022-12-18T09:15:55;46.00;;;21.10;;
505;SDS011;551;48.524;9.056;2022-12-18T09:18:21;55.67;;;18.23;;
505;SDS011;551;48.524;9.056;2022-12-18T09:20:48;38.40;;;19.00;;
505;SDS011;551;48.524;9.056;2022-12-18T09:23:15;29.30;;;17.37;;
505;SDS011;551;48.524;9.056;2022-12-18T09:25:40;37.53;;;19.30;;
505;SDS011;551;48.524;9.056;2022-12-18T09:28:09;45.30;;;21.30;;
505;SDS011;551;48.524;9.056;2022-12-18T09:30:37;41.10;;;21.70;;
505;SDS011;551;48.524;9.056;2022-12-18T09:33:03;34.50;;;18.77;;
505;SDS011;551;48.524;9.056;2022-12-18T09:35:30;42.73;;;19.90;;
505;SDS011;551;48.524;9.056;2022-12-18T09:37:55;48.13;;;21.33;;
505;SDS011;551;48.524;9.056;2022-12-18T09:40:22;48.53;;;21.97;;
505;SDS011;551;48.524;9.056;2022-12-18T09:42:56;39.20;;;19.93;;
505;SDS011;551;48.524;9.056;2022-12-18T09:45:24;44.40;;;23.37;;
505;SDS011;551;48.524;9.056;2022-12-18T09:47:51;47.63;;;22.53;;
505;SDS011;551;48.524;9.056;2022-12-18T09:52:57;44.43;;;22.20;;
505;SDS011;551;48.524;9.056;2022-12-18T09:55:35;43.97;;;22.33;;
505;SDS011;551;48.524;9.056;2022-12-18T09:58:24;42.70;;;23.57;;
505;SDS011;551;48.524;9.056;2022-12-18T10:00:59;43.30;;;20.73;;
505;SDS011;551;48.524;9.056;2022-12-18T10:03:25;48.73;;;22.23;;
505;SDS011;551;48.524;9.056;2022-12-18T10:08:22;43.67;;;24.80;;
505;SDS011;551;48.524;9.056;2022-12-18T10:10:53;49.77;;;25.67;;
505;SDS011;551;48.524;9.056;2022-12-18T10:13:24;52.63;;;24.83;;
505;SDS011;551;48.524;9.056;2022-12-18T10:16:03;48.70;;;23.90;;
505;SDS011;551;48.524;9.056;2022-12-18T10:21:03;54.37;;;25.87;;
505;SDS011;551;48.524;9.056;2022-12-18T10:26:23;45.63;;;22.40;;
505;SDS011;551;48.524;9.056;2022-12-18T10:28:49;59.47;;;25.20;;
505;SDS011;551;48.524;9.056;2022-12-18T10:31:18;47.03;;;23.07;;
505;SDS011;551;48.524;9.056;2022-12-18T10:33:48;46.53;;;22.17;;
505;SDS011;551;48.524;9.056;2022-12-18T10:36:14;44.07;;;22.33;;
505;SDS011;551;48.524;9.056;2022-12-18T10:38:40;49.20;;;23.60;;
505;SDS011;551;48.524;9.056;2022-12-18T10:41:08;43.90;;;21.80;;
505;SDS011;551;48.524;9.056;2022-12-18T10:44:10;46.97;;;22.73;;
505;SDS011;551;48.524;9.056;2022-12-18T10:46:37;47.70;;;22.93;;
505;SDS011;551;48.524;9.056;2022-12-18T10:49:03;42.70;;;22.03;;
505;SDS011;551;48.524;9.056;2022-12-18T10:51:30;52.00;;;24.50;;
505;SDS011;551;48.524;9.056;2022-12-18T10:56:33;44.87;;;23.07;;
505;SDS011;551;48.524;9.056;2022-12-18T10:59:02;53.23;;;24.57;;
505;SDS011;551;48.524;9.056;2022-12-18T11:04:24;50.80;;;24.70;;
505;SDS011;551;48.524;9.056;2022-12-18T11:09:31;47.87;;;25.13;;
505;SDS011;551;48.524;9.056;2022-12-18T11:12:04;50.43;;;25.30;;
505;SDS011;551;48.524;9.056;2022-12-18T11:17:16;65.53;;;27.23;;
505;SDS011;551;48.524;9.056;2022-12-18T11:19:45;48.13;;;26.23;;
505;SDS011;551;48.524;9.056;2022-12-18T11:22:25;60.27;;;27.73;;
505;SDS011;551;48.524;9.056;2022-12-18T11:25:03;53.53;;;27.47;;
505;SDS011;551;48.524;9.056;2022-12-18T11:27:54;56.10;;;28.07;;
505;SDS011;551;48.524;9.056;2022-12-18T11:32:58;52.97;;;26.93;;
505;SDS011;551;48.524;9.056;2022-12-18T11:35:44;57.20;;;27.90;;
505;SDS011;551;48.524;9.056;2022-12-18T11:38:18;62.73;;;28.57;;
505;SDS011;551;48.524;9.056;2022-12-18T11:40:45;62.30;;;29.03;;
505;SDS011;551;48.524;9.056;2022-12-18T11:43:17;53.37;;;27.03;;
505;SDS011;551;48.524;9.056;2022-12-18T11:45:53;50.47;;;26.47;;
505;SDS011;551;48.524;9.056;2022-12-18T11:48:27;60.93;;;31.00;;
505;SDS011;551;48.524;9.056;2022-12-18T11:50:58;60.27;;;30.73;;
505;SDS011;551;48.524;9.056;2022-12-18T11:53:26;47.00;;;27.27;;
505;SDS011;551;48.524;9.056;2022-12-18T12:10:09;80.93;;;33.40;;
505;SDS011;551;48.524;9.056;2022-12-18T12:13:37;49.43;;;29.73;;
505;SDS011;551;48.524;9.056;2022-12-18T12:15:51;55.30;;;28.10;;
505;SDS011;551;48.524;9.056;2022-12-18T12:21:18;62.20;;;28.43;;
505;SDS011;551;48.524;9.056;2022-12-18T12:24:10;62.73;;;30.90;;
505;SDS011;551;48.524;9.056;2022-12-18T12:27:05;55.10;;;27.70;;
505;SDS011;551;48.524;9.056;2022-12-18T12:30:27;53.30;;;25.67;;
505;SDS011;551;48.524;9.056;2022-12-18T12:35:42;49.23;;;27.70;;
505;SDS011;551;48.524;9.056;2022-12-18T12:38:34;50.33;;;27.30;;
505;SDS011;551;48.524;9.056;2022-12-18T12:41:06;56.37;;;26.67;;
505;SDS011;551;48.524;9.056;2022-12-18T12:43:57;58.50;;;29.70;;
505;SDS011;551;48.524;9.056;2022-12-18T12:46:24;54.33;;;27.20;;
505;SDS011;551;48.524;9.056;2022-12-18T12:53:51;64.17;;;28.97;;
505;SDS011;551;48.524;9.056;2022-12-18T12:56:19;60.17;;;25.87;;
505;SDS011;551;48.524;9.056;2022-12-18T13:04:27;59.57;;;26.53;;
505;SDS011;551;48.524;9.056;2022-12-18T13:07:24;54.07;;;25.47;;
505;SDS011;551;48.524;9.056;2022-12-18T13:10:14;57.37;;;26.73;;
505;SDS011;551;48.524;9.056;2022-12-18T13:15:44;61.03;;;29.10;;
505;SDS011;551;48.524;9.056;2022-12-18T13:25:50;58.30;;;27.43;;
505;SDS011;551;48.524;9.056;2022-12-18T13:28:17;63.37;;;29.50;;
505;SDS011;551;48.524;9.056;2022-12-18T13:30:53;66.70;;;29.70;;
505;SDS011;551;48.524;9.056;2022-12-18T13:41:00;61.60;;;29.00;;
505;SDS011;551;48.524;9.056;2022-12-18T13:43:39;67.57;;;29.57;;
505;SDS011;551;48.524;9.056;2022-12-18T13:49:03;54.13;;;27.20;;
505;SDS011;551;48.524;9.056;2022-12-18T13:51:47;58.37;;;27.40;;
505;SDS011;551;48.524;9.056;2022-12-18T13:57:00;54.93;;;28.27;;
505;SDS011;551;48.524;9.056;2022-12-18T13:59:32;61.13;;;28.80;;
505;SDS011;551;48.524;9.056;2022-12-18T14:02:15;58.60;;;28.80;;
505;SDS011;551;48.524;9.056;2022-12-18T14:04:48;65.90;;;30.13;;
505;SDS011;551;48.524;9.056;2022-12-18T14:07:22;52.00;;;27.40;;
505;SDS011;551;48.524;9.056;2022-12-18T14:09:56;64.33;;;27.37;;
505;SDS011;551;48.524;9.056;2022-12-18T14:12:25;68.90;;;30.00;;
505;SDS011;551;48.524;9.056;2022-12-18T14:20:29;55.90;;;27.00;;
505;SDS011;551;48.524;9.056;2022-12-18T14:22:56;59.70;;;29.57;;
505;SDS011;551;48.524;9.056;2022-12-18T14:25:27;64.90;;;30.33;;
505;SDS011;551;48.524;9.056;2022-12-18T14:30:34;61.00;;;31.27;;
505;SDS011;551;48.524;9.056;2022-12-18T14:33:08;65.50;;;29.80;;
505;SDS011;551;48.524;9.056;2022-12-18T14:35:58;65.80;;;30.43;;
505;SDS011;551;48.524;9.056;2022-12-18T14:38:26;65.90;;;29.77;;
505;SDS011;551;48.524;9.056;2022-12-18T14:41:05;63.30;;;31.13;;
505;SDS011;551;48.524;9.056;2022-12-18T14:43:37;68.03;;;30.87;;
505;SDS011;551;48.524;9.056;2022-12-18T14:46:06;71.40;;;32.77;;
505;SDS011;551;48.524;9.056;2022-12-18T14:48:52;60.03;;;29.57;;
505;SDS011;551;48.524;9.056;2022-12-18T14:51:20;60.90;;;31.97;;
505;SDS011;551;48.524;9.056;2022-12-18T14:53:58;65.57;;;31.23;;
505;SDS011;551;48.524;9.056;2022-12-18T14:56:32;68.87;;;32.17;;
505;SDS011;551;48.524;9.056;2022-12-18T14:59:03;63.67;;;31.80;;
505;SDS011;551;48.524;9.056;2022-12-18T15:01:32;63.00;;;31.10;;
505;SDS011;551;48.524;9.056;2022-12-18T15:04:04;67.47;;;31.87;;
505;SDS011;551;48.524;9.056;2022-12-18T15:06:47;65.97;;;32.03;;
505;SDS011;551;48.524;9.056;2022-12-18T15:09:23;66.70;;;30.90;;
505;SDS011;551;48.524;9.056;2022-12-18T15:11:55;66.53;;;33.10;;
505;SDS011;551;48.524;9.056;2022-12-18T15:14:23;62.70;;;31.90;;
505;SDS011;551;48.524;9.056;2022-12-18T15:16:54;68.80;;;31.30;;
505;SDS011;551;48.524;9.056;2022-12-18T15:19:42;66.27;;;31.13;;
505;SDS011;551;48.524;9.056;2022-12-18T15:24:54;77.17;;;34.27;;
505;SDS011;551;48.524;9.056;2022-12-18T15:32:38;70.10;;;33.67;;
505;SDS011;551;48.524;9.056;2022-12-18T15:37:39;80.50;;;38.77;;
505;SDS011;551;48.524;9.056;2022-12-18T15:40:05;84.63;;;36.80;;
505;SDS011;551;48.524;9.056;2022-12-18T15:42:32;86.90;;;39.97;;
505;SDS011;551;48.524;9.056;2022-12-18T15:45:16;88.60;;;39.57;;
505;SDS011;551;48.524;9.056;2022-12-18T15:47:42;88.50;;;39.93;;
505;SDS011;551;48.524;9.056;2022-12-18T15:50:11;77.75;;;35.47;;
505;SDS011;551;48.524;9.056;2022-12-18T15:52:39;83.77;;;35.50;;
505;SDS011;551;48.524;9.056;2022-12-18T15:55:13;76.00;;;34.72;;
505;SDS011;551;48.524;9.056;2022-12-18T15:57:59;73.10;;;32.22;;
505;SDS011;551;48.524;9.056;2022-12-18T16:00:24;70.43;;;34.27;;
505;SDS011;551;48.524;9.056;2022-12-18T16:02:50;69.00;;;33.67;;
505;SDS011;551;48.524;9.056;2022-12-18T16:05:16;84.70;;;37.07;;
505;SDS011;551;48.524;9.056;2022-12-18T16:07:43;92.63;;;38.17;;
505;SDS011;551;48.524;9.056;2022-12-18T16:10:10;81.10;;;37.00;;
505;SDS011;551;48.524;9.056;2022-12-18T16:12:36;80.63;;;35.50;;
505;SDS011;551;48.524;9.056;2022-12-18T16:15:02;68.63;;;32.30;;
505;SDS011;551;48.524;9.056;2022-12-18T16:17:29;73.55;;;31.27;;
505;SDS011;551;48.524;9.056;2022-12-18T16:19:54;75.70;;;32.93;;
505;SDS011;551;48.524;9.056;2022-12-18T16:22:21;76.80;;;32.57;;
505;SDS011;551;48.524;9.056;2022-12-18T16:24:51;87.93;;;35.17;;
505;SDS011;551;48.524;9.056;2022-12-18T16:27:18;75.43;;;35.97;;
505;SDS011;551;48.524;9.056;2022-12-18T16:29:44;72.68;;;32.45;;
505;SDS011;551;48.524;9.056;2022-12-18T16:32:17;69.80;;;35.30;;
505;SDS011;551;48.524;9.056;2022-12-18T16:34:44;76.38;;;33.28;;
505;SDS011;551;48.524;9.056;2022-12-18T16:37:11;74.43;;;35.88;;
505;SDS011;551;48.524;9.056;2022-12-18T16:39:39;85.32;;;36.88;;
505;SDS011;551;48.524;9.056;2022-12-18T16:42:08;83.50;;;34.22;;
505;SDS011;551;48.524;9.056;2022-12-18T16:44:39;80.07;;;35.22;;
505;SDS011;551;48.524;9.056;2022-12-18T16:47:05;64.70;;;35.00;;
505;SDS011;551;48.524;9.056;2022-12-18T16:49:30;81.00;;;36.17;;
505;SDS011;551;48.524;9.056;2022-12-18T16:51:56;87.53;;;35.53;;
505;SDS011;551;48.524;9.056;2022-12-18T16:54:22;73.10;;;36.30;;
505;SDS011;551;48.524;9.056;2022-12-18T16:56:47;88.37;;;37.50;;
505;SDS011;551;48.524;9.056;2022-12-18T16:59:14;69.05;;;34.28;;
505;SDS011;551;48.524;9.056;2022-12-18T17:01:40;88.57;;;37.33;;
505;SDS011;551;48.524;9.056;2022-12-18T17:04:06;82.07;;;36.43;;
505;SDS011;551;48.524;9.056;2022-12-18T17:06:33;87.03;;;36.60;;
505;SDS011;551;48.524;9.056;2022-12-18T17:09:05;82.75;;;38.33;;
505;SDS011;551;48.524;9.056;2022-12-18T17:11:32;84.03;;;37.10;;
505;SDS011;551;48.524;9.056;2022-12-18T17:13:59;86.38;;;37.38;;
505;SDS011;551;48.524;9.056;2022-12-18T17:16:29;76.63;;;35.35;;
505;SDS011;551;48.524;9.056;2022-12-18T17:18:55;81.97;;;37.23;;
505;SDS011;551;48.524;9.056;2022-12-18T17:21:20;72.63;;;33.80;;
505;SDS011;551;48.524;9.056;2022-12-18T17:23:46;79.23;;;37.23;;
505;SDS011;551;48.524;9.056;2022-12-18T17:26:13;80.78;;;39.30;;
505;SDS011;551;48.524;9.056;2022-12-18T17:28:39;86.20;;;38.80;;
505;SDS011;551;48.524;9.056;2022-12-18T17:31:12;85.10;;;39.80;;
505;SDS011;551;48.524;9.056;2022-12-18T17:33:43;91.15;;;40.28;;